sensor_id;sensor_type;location;lat;lon;timestamp;P1;durP1;ratioP1;P2;durP2;ratioP2
16288;SDS011;26089;43.538;5.250;2022-09-04T00:00:20;4.13;;;3.20;;
16288;SDS011;26089;43.538;5.250;2022-09-04T00:03:08;3.70;;;3.40;;
16288;SDS011;26089;43.538;5.250;2022-09-04T00:05:46;4.67;;;3.10;;
16288;SDS011;26089;43.538;5.250;2022-09-04T00:08:25;5.77;;;3.10;;
16288;SDS011;26089;43.538;5.250;2022-09-04T00:11:07;4.47;;;3.17;;
16288;SDS011;26089;43.538;5.250;2022-09-04T00:13:38;4.03;;;3.50;;
16288;SDS011;26089;43.538;5.250;2022-09-04T00:16:11;4.87;;;3.73;;
16288;SDS011;26089;43.538;5.250;2022-09-04T00:18:45;7.23;;;4.03;;
16288;SDS011;26089;43.538;5.250;2022-09-04T00:21:23;4.17;;;3.40;;
16288;SDS011;26089;43.538;5.250;2022-09-04T00:23:57;4.57;;;3.60;;
16288;SDS011;26089;43.538;5.250;2022-09-04T00:26:29;5.40;;;3.50;;
16288;SDS011;26089;43.538;5.250;2022-09-04T00:29:05;5.20;;;3.67;;
16288;SDS011;26089;43.538;5.250;2022-09-04T00:31:40;4.73;;;3.70;;
16288;SDS011;26089;43.538;5.250;2022-09-04T00:34:14;3.77;;;3.23;;
16288;SDS011;26089;43.538;5.250;2022-09-04T00:36:56;4.33;;;3.23;;
16288;SDS011;26089;43.538;5.250;2022-09-04T00:39:30;5.23;;;3.43;;
16288;SDS011;26089;43.538;5.250;2022-09-04T00:42:06;4.83;;;3.43;;
16288;SDS011;26089;43.538;5.250;2022-09-04T00:44:44;3.53;;;3.10;;
16288;SDS011;26089;43.538;5.250;2022-09-04T00:47:20;5.13;;;3.10;;
16288;SDS011;26089;43.538;5.250;2022-09-04T00:50:23;4.57;;;3.13;;
16288;SDS011;26089;43.538;5.250;2022-09-04T00:56:06;5.63;;;3.20;;
16288;SDS011;26089;43.538;5.250;2022-09-04T00:58:55;3.07;;;2.77;;
16288;SDS011;26089;43.538;5.250;2022-09-04T01:01:36;3.40;;;2.90;;
16288;SDS011;26089;43.538;5.250;2022-09-04T01:07:10;3.40;;;3.10;;
16288;SDS011;26089;43.538;5.250;2022-09-04T01:12:58;4.50;;;3.10;;
16288;SDS011;26089;43.538;5.250;2022-09-04T01:15:34;4.70;;;3.50;;
16288;SDS011;26089;43.538;5.250;2022-09-04T01:18:07;3.20;;;2.40;;
16288;SDS011;26089;43.538;5.250;2022-09-04T01:23:59;4.37;;;3.43;;
16288;SDS011;26089;43.538;5.250;2022-09-04T01:26:55;3.67;;;3.10;;
16288;SDS011;26089;43.538;5.250;2022-09-04T01:29:30;4.77;;;3.17;;
16288;SDS011;26089;43.538;5.250;2022-09-04T01:32:07;7.33;;;3.13;;
16288;SDS011;26089;43.538;5.250;2022-09-04T01:34:44;3.60;;;3.30;;
16288;SDS011;26089;43.538;5.250;2022-09-04T01:37:34;4.87;;;2.93;;
16288;SDS011;26089;43.538;5.250;2022-09-04T01:40:17;5.60;;;3.13;;
16288;SDS011;26089;43.538;5.250;2022-09-04T01:42:55;4.90;;;3.00;;
16288;SDS011;26089;43.538;5.250;2022-09-04T01:45:28;5.87;;;3.57;;
16288;SDS011;26089;43.538;5.250;2022-09-04T01:48:08;4.63;;;3.07;;
16288;SDS011;26089;43.538;5.250;2022-09-04T01:50:40;6.77;;;3.60;;
16288;SDS011;26089;43.538;5.250;2022-09-04T01:53:10;5.30;;;3.10;;
16288;SDS011;26089;43.538;5.250;2022-09-04T01:55:42;4.80;;;3.10;;
16288;SDS011;26089;43.538;5.250;2022-09-04T01:58:17;6.23;;;3.43;;
16288;SDS011;26089;43.538;5.250;2022-09-04T02:00:52;6.43;;;3.03;;
16288;SDS011;26089;43.538;5.250;2022-09-04T02:03:27;3.93;;;3.07;;
16288;SDS011;26089;43.538;5.250;2022-09-04T02:06:04;2.93;;;2.60;;
16288;SDS011;26089;43.538;5.250;2022-09-04T02:08:46;3.00;;;2.80;;
16288;SDS011;26089;43.538;5.250;2022-09-04T02:11:23;4.00;;;3.00;;
16288;SDS011;26089;43.538;5.250;2022-09-04T02:13:59;3.47;;;2.97;;
16288;SDS011;26089;43.538;5.250;2022-09-04T02:16:43;3.47;;;3.03;;
16288;SDS011;26089;43.538;5.250;2022-09-04T02:19:18;5.90;;;2.93;;
16288;SDS011;26089;43.538;5.250;2022-09-04T02:21:57;6.00;;;3.23;;
16288;SDS011;26089;43.538;5.250;2022-09-04T02:24:32;6.23;;;3.10;;
16288;SDS011;26089;43.538;5.250;2022-09-04T02:27:06;6.77;;;3.13;;
16288;SDS011;26089;43.538;5.250;2022-09-04T02:29:41;4.53;;;2.67;;
16288;SDS011;26089;43.538;5.250;2022-09-04T02:32:14;5.63;;;2.80;;
16288;SDS011;26089;43.538;5.250;2022-09-04T02:34:47;4.80;;;3.40;;
16288;SDS011;26089;43.538;5.250;2022-09-04T02:37:21;3.50;;;3.20;;
16288;SDS011;26089;43.538;5.250;2022-09-04T02:39:59;5.90;;;2.90;;
16288;SDS011;26089;43.538;5.250;2022-09-04T02:42:37;4.63;;;2.87;;
16288;SDS011;26089;43.538;5.250;2022-09-04T02:45:14;5.23;;;3.43;;
16288;SDS011;26089;43.538;5.250;2022-09-04T02:47:49;5.97;;;3.50;;
16288;SDS011;26089;43.538;5.250;2022-09-04T02:50:27;7.33;;;3.13;;
16288;SDS011;26089;43.538;5.250;2022-09-04T02:53:07;6.90;;;2.97;;
16288;SDS011;26089;43.538;5.250;2022-09-04T02:55:48;5.80;;;3.10;;
16288;SDS011;26089;43.538;5.250;2022-09-04T02:58:25;5.33;;;3.37;;
16288;SDS011;26089;43.538;5.250;2022-09-04T03:01:06;3.77;;;3.30;;
16288;SDS011;26089;43.538;5.250;2022-09-04T03:03:38;3.43;;;3.00;;
16288;SDS011;26089;43.538;5.250;2022-09-04T03:06:13;3.30;;;2.90;;
16288;SDS011;26089;43.538;5.250;2022-09-04T03:08:48;3.67;;;2.83;;
16288;SDS011;26089;43.538;5.250;2022-09-04T03:11:22;3.57;;;2.90;;
16288;SDS011;26089;43.538;5.250;2022-09-04T03:13:58;4.50;;;2.67;;
16288;SDS011;26089;43.538;5.250;2022-09-04T03:16:35;2.87;;;2.60;;
16288;SDS011;26089;43.538;5.250;2022-09-04T03:19:07;3.07;;;2.67;;
16288;SDS011;26089;43.538;5.250;2022-09-04T03:21:42;4.00;;;2.90;;
16288;SDS011;26089;43.538;5.250;2022-09-04T03:24:16;3.67;;;2.97;;
16288;SDS011;26089;43.538;5.250;2022-09-04T03:26:49;4.20;;;3.10;;
16288;SDS011;26089;43.538;5.250;2022-09-04T03:29:22;5.43;;;3.10;;
16288;SDS011;26089;43.538;5.250;2022-09-04T03:32:00;3.03;;;2.73;;
16288;SDS011;26089;43.538;5.250;2022-09-04T03:34:38;4.23;;;3.17;;
16288;SDS011;26089;43.538;5.250;2022-09-04T03:37:23;3.27;;;2.97;;
16288;SDS011;26089;43.538;5.250;2022-09-04T03:40:17;6.27;;;2.83;;
16288;SDS011;26089;43.538;5.250;2022-09-04T03:42:59;3.60;;;2.90;;
16288;SDS011;26089;43.538;5.250;2022-09-04T03:45:43;3.67;;;2.67;;
16288;SDS011;26089;43.538;5.250;2022-09-04T03:48:24;3.63;;;2.30;;
16288;SDS011;26089;43.538;5.250;2022-09-04T03:51:08;2.90;;;2.40;;
16288;SDS011;26089;43.538;5.250;2022-09-04T03:53:43;3.67;;;2.40;;
16288;SDS011;26089;43.538;5.250;2022-09-04T03:56:21;3.03;;;2.73;;
16288;SDS011;26089;43.538;5.250;2022-09-04T03:59:06;2.83;;;2.63;;
16288;SDS011;26089;43.538;5.250;2022-09-04T04:01:39;3.80;;;2.37;;
16288;SDS011;26089;43.538;5.250;2022-09-04T04:07:10;2.60;;;2.40;;
16288;SDS011;26089;43.538;5.250;2022-09-04T04:09:47;2.40;;;2.13;;
16288;SDS011;26089;43.538;5.250;2022-09-04T04:12:35;2.83;;;2.20;;
16288;SDS011;26089;43.538;5.250;2022-09-04T04:15:21;2.67;;;2.10;;
16288;SDS011;26089;43.538;5.250;2022-09-04T04:20:53;2.27;;;2.07;;
16288;SDS011;26089;43.538;5.250;2022-09-04T04:23:50;2.50;;;2.30;;
16288;SDS011;26089;43.538;5.250;2022-09-04T04:26:41;3.50;;;1.90;;
16288;SDS011;26089;43.538;5.250;2022-09-04T04:29:22;2.23;;;2.03;;
16288;SDS011;26089;43.538;5.250;2022-09-04T04:32:16;2.30;;;2.20;;
16288;SDS011;26089;43.538;5.250;2022-09-04T04:34:59;2.67;;;2.27;;
16288;SDS011;26089;43.538;5.250;2022-09-04T04:37:40;3.17;;;1.90;;
16288;SDS011;26089;43.538;5.250;2022-09-04T04:40:19;2.23;;;2.03;;
16288;SDS011;26089;43.538;5.250;2022-09-04T04:42:58;2.07;;;1.97;;
16288;SDS011;26089;43.538;5.250;2022-09-04T04:45:33;2.23;;;2.13;;
16288;SDS011;26089;43.538;5.250;2022-09-04T04:51:21;2.03;;;1.90;;
16288;SDS011;26089;43.538;5.250;2022-09-04T04:54:22;2.83;;;2.10;;
16288;SDS011;26089;43.538;5.250;2022-09-04T04:57:00;1.90;;;1.80;;
16288;SDS011;26089;43.538;5.250;2022-09-04T04:59:38;2.77;;;1.73;;
16288;SDS011;26089;43.538;5.250;2022-09-04T05:02:15;2.17;;;1.97;;
16288;SDS011;26089;43.538;5.250;2022-09-04T05:04:49;1.93;;;1.83;;
16288;SDS011;26089;43.538;5.250;2022-09-04T05:07:28;2.13;;;1.90;;
16288;SDS011;26089;43.538;5.250;2022-09-04T05:10:04;2.37;;;1.87;;
16288;SDS011;26089;43.538;5.250;2022-09-04T05:12:50;2.00;;;1.90;;
16288;SDS011;26089;43.538;5.250;2022-09-04T05:15:25;2.93;;;1.87;;
16288;SDS011;26089;43.538;5.250;2022-09-04T05:17:59;3.13;;;2.00;;
16288;SDS011;26089;43.538;5.250;2022-09-04T05:20:35;2.37;;;2.27;;
16288;SDS011;26089;43.538;5.250;2022-09-04T05:23:11;2.33;;;2.13;;
16288;SDS011;26089;43.538;5.250;2022-09-04T05:25:51;2.00;;;1.80;;
16288;SDS011;26089;43.538;5.250;2022-09-04T05:28:28;2.40;;;1.90;;
16288;SDS011;26089;43.538;5.250;2022-09-04T05:31:12;2.77;;;1.90;;
16288;SDS011;26089;43.538;5.250;2022-09-04T05:33:48;2.67;;;1.83;;
16288;SDS011;26089;43.538;5.250;2022-09-04T05:36:24;1.97;;;1.77;;
16288;SDS011;26089;43.538;5.250;2022-09-04T05:39:04;2.67;;;1.93;;
16288;SDS011;26089;43.538;5.250;2022-09-04T05:41:43;4.40;;;1.93;;
16288;SDS011;26089;43.538;5.250;2022-09-04T05:44:33;1.83;;;1.73;;
16288;SDS011;26089;43.538;5.250;2022-09-04T05:47:07;2.40;;;2.10;;
16288;SDS011;26089;43.538;5.250;2022-09-04T05:52:44;1.67;;;1.57;;
16288;SDS011;26089;43.538;5.250;2022-09-04T05:58:32;2.00;;;1.90;;
16288;SDS011;26089;43.538;5.250;2022-09-04T06:01:15;2.03;;;1.93;;
16288;SDS011;26089;43.538;5.250;2022-09-04T06:04:00;2.63;;;2.27;;
16288;SDS011;26089;43.538;5.250;2022-09-04T06:07:00;2.17;;;2.07;;
16288;SDS011;26089;43.538;5.250;2022-09-04T06:09:37;2.33;;;2.10;;
16288;SDS011;26089;43.538;5.250;2022-09-04T06:12:23;2.40;;;1.90;;
16288;SDS011;26089;43.538;5.250;2022-09-04T06:15:12;3.30;;;2.00;;
16288;SDS011;26089;43.538;5.250;2022-09-04T06:23:44;2.13;;;2.00;;
16288;SDS011;26089;43.538;5.250;2022-09-04T06:26:34;2.10;;;2.00;;
16288;SDS011;26089;43.538;5.250;2022-09-04T06:29:17;2.03;;;1.90;;
16288;SDS011;26089;43.538;5.250;2022-09-04T06:32:16;1.80;;;1.70;;
16288;SDS011;26089;43.538;5.250;2022-09-04T06:35:02;2.20;;;1.80;;
16288;SDS011;26089;43.538;5.250;2022-09-04T06:37:42;2.37;;;1.70;;
16288;SDS011;26089;43.538;5.250;2022-09-04T06:40:23;2.00;;;1.90;;
16288;SDS011;26089;43.538;5.250;2022-09-04T06:43:06;2.53;;;2.07;;
16288;SDS011;26089;43.538;5.250;2022-09-04T06:45:43;1.63;;;1.53;;
16288;SDS011;26089;43.538;5.250;2022-09-04T06:48:24;2.50;;;2.00;;
16288;SDS011;26089;43.538;5.250;2022-09-04T06:51:05;2.00;;;1.90;;
16288;SDS011;26089;43.538;5.250;2022-09-04T06:53:41;1.70;;;1.60;;
16288;SDS011;26089;43.538;5.250;2022-09-04T06:56:29;3.70;;;1.80;;
16288;SDS011;26089;43.538;5.250;2022-09-04T06:59:22;2.97;;;1.87;;
16288;SDS011;26089;43.538;5.250;2022-09-04T07:02:02;2.20;;;2.10;;
16288;SDS011;26089;43.538;5.250;2022-09-04T07:04:46;1.90;;;1.77;;
16288;SDS011;26089;43.538;5.250;2022-09-04T07:07:25;3.53;;;2.17;;
16288;SDS011;26089;43.538;5.250;2022-09-04T07:09:58;2.13;;;1.90;;
16288;SDS011;26089;43.538;5.250;2022-09-04T07:16:04;2.53;;;1.63;;
16288;SDS011;26089;43.538;5.250;2022-09-04T07:18:50;2.67;;;1.80;;
16288;SDS011;26089;43.538;5.250;2022-09-04T07:21:31;2.23;;;2.03;;
16288;SDS011;26089;43.538;5.250;2022-09-04T07:24:07;2.90;;;1.57;;
16288;SDS011;26089;43.538;5.250;2022-09-04T07:26:43;3.70;;;2.00;;
16288;SDS011;26089;43.538;5.250;2022-09-04T07:29:20;2.50;;;2.00;;
16288;SDS011;26089;43.538;5.250;2022-09-04T07:31:58;2.22;;;1.80;;
16288;SDS011;26089;43.538;5.250;2022-09-04T07:34:32;2.25;;;1.90;;
16288;SDS011;26089;43.538;5.250;2022-09-04T07:37:09;2.85;;;1.70;;
16288;SDS011;26089;43.538;5.250;2022-09-04T07:39:48;2.88;;;1.90;;
16288;SDS011;26089;43.538;5.250;2022-09-04T07:42:27;2.28;;;2.00;;
16288;SDS011;26089;43.538;5.250;2022-09-04T07:45:00;1.75;;;1.65;;
16288;SDS011;26089;43.538;5.250;2022-09-04T07:47:32;4.45;;;1.90;;
16288;SDS011;26089;43.538;5.250;2022-09-04T07:50:06;2.25;;;1.85;;
16288;SDS011;26089;43.538;5.250;2022-09-04T07:52:42;2.05;;;1.85;;
16288;SDS011;26089;43.538;5.250;2022-09-04T07:58:21;3.15;;;1.80;;
16288;SDS011;26089;43.538;5.250;2022-09-04T08:01:17;6.40;;;2.03;;
16288;SDS011;26089;43.538;5.250;2022-09-04T08:06:51;2.72;;;2.13;;
16288;SDS011;26089;43.538;5.250;2022-09-04T08:09:31;3.00;;;2.05;;
16288;SDS011;26089;43.538;5.250;2022-09-04T08:12:20;2.17;;;1.98;;
16288;SDS011;26089;43.538;5.250;2022-09-04T08:15:11;3.70;;;1.60;;
16288;SDS011;26089;43.538;5.250;2022-09-04T08:17:50;6.90;;;2.13;;
16288;SDS011;26089;43.538;5.250;2022-09-04T08:20:36;3.00;;;2.35;;
16288;SDS011;26089;43.538;5.250;2022-09-04T08:23:17;2.60;;;1.92;;
16288;SDS011;26089;43.538;5.250;2022-09-04T08:26:06;3.15;;;2.13;;
16288;SDS011;26089;43.538;5.250;2022-09-04T08:28:47;4.20;;;2.25;;
16288;SDS011;26089;43.538;5.250;2022-09-04T08:31:31;6.28;;;2.17;;
16288;SDS011;26089;43.538;5.250;2022-09-04T08:37:09;2.58;;;2.10;;
16288;SDS011;26089;43.538;5.250;2022-09-04T08:39:44;3.58;;;2.25;;
16288;SDS011;26089;43.538;5.250;2022-09-04T08:45:56;2.28;;;2.10;;
16288;SDS011;26089;43.538;5.250;2022-09-04T08:58:25;4.60;;;2.40;;
16288;SDS011;26089;43.538;5.250;2022-09-04T09:01:24;3.50;;;2.13;;
16288;SDS011;26089;43.538;5.250;2022-09-04T09:07:12;5.93;;;2.45;;
16288;SDS011;26089;43.538;5.250;2022-09-04T09:10:00;4.13;;;2.28;;
16288;SDS011;26089;43.538;5.250;2022-09-04T09:13:00;3.92;;;1.90;;
16288;SDS011;26089;43.538;5.250;2022-09-04T09:18:50;3.83;;;1.90;;
16288;SDS011;26089;43.538;5.250;2022-09-04T09:21:33;3.45;;;2.20;;
16288;SDS011;26089;43.538;5.250;2022-09-04T09:27:29;6.57;;;2.05;;
16288;SDS011;26089;43.538;5.250;2022-09-04T09:30:16;4.30;;;2.65;;
16288;SDS011;26089;43.538;5.250;2022-09-04T09:36:01;3.75;;;2.38;;
16288;SDS011;26089;43.538;5.250;2022-09-04T09:39:05;6.45;;;2.72;;
16288;SDS011;26089;43.538;5.250;2022-09-04T09:48:00;6.30;;;2.75;;
16288;SDS011;26089;43.538;5.250;2022-09-04T09:54:03;5.20;;;1.90;;
16288;SDS011;26089;43.538;5.250;2022-09-04T10:00:05;6.03;;;2.40;;
16288;SDS011;26089;43.538;5.250;2022-09-04T10:09:00;7.80;;;3.13;;
16288;SDS011;26089;43.538;5.250;2022-09-04T10:11:53;7.13;;;2.65;;
16288;SDS011;26089;43.538;5.250;2022-09-04T10:23:58;5.25;;;2.63;;
16288;SDS011;26089;43.538;5.250;2022-09-04T10:30:05;4.50;;;2.38;;
16288;SDS011;26089;43.538;5.250;2022-09-04T10:32:41;6.03;;;2.45;;
16288;SDS011;26089;43.538;5.250;2022-09-04T10:35:30;7.53;;;2.22;;
16288;SDS011;26089;43.538;5.250;2022-09-04T10:44:25;6.50;;;2.70;;
16288;SDS011;26089;43.538;5.250;2022-09-04T10:47:05;6.63;;;2.50;;
16288;SDS011;26089;43.538;5.250;2022-09-04T10:49:46;8.40;;;2.70;;
16288;SDS011;26089;43.538;5.250;2022-09-04T10:52:45;6.88;;;2.70;;
16288;SDS011;26089;43.538;5.250;2022-09-04T10:55:39;8.98;;;2.97;;
16288;SDS011;26089;43.538;5.250;2022-09-04T10:58:27;6.22;;;2.42;;
16288;SDS011;26089;43.538;5.250;2022-09-04T11:04:12;7.90;;;2.65;;
16288;SDS011;26089;43.538;5.250;2022-09-04T11:07:04;11.55;;;2.90;;
16288;SDS011;26089;43.538;5.250;2022-09-04T11:09:49;6.28;;;2.47;;
16288;SDS011;26089;43.538;5.250;2022-09-04T11:12:45;8.25;;;2.65;;
16288;SDS011;26089;43.538;5.250;2022-09-04T11:15:32;7.95;;;3.00;;
16288;SDS011;26089;43.538;5.250;2022-09-04T11:18:33;5.97;;;2.40;;
16288;SDS011;26089;43.538;5.250;2022-09-04T11:21:38;4.35;;;2.30;;
16288;SDS011;26089;43.538;5.250;2022-09-04T11:27:36;4.38;;;2.50;;
16288;SDS011;26089;43.538;5.250;2022-09-04T11:30:20;5.88;;;2.90;;
16288;SDS011;26089;43.538;5.250;2022-09-04T11:39:39;4.40;;;2.67;;
16288;SDS011;26089;43.538;5.250;2022-09-04T11:42:39;4.90;;;2.40;;
16288;SDS011;26089;43.538;5.250;2022-09-04T11:48:28;6.53;;;2.58;;
16288;SDS011;26089;43.538;5.250;2022-09-04T11:54:34;7.95;;;2.63;;
16288;SDS011;26089;43.538;5.250;2022-09-04T11:57:26;6.45;;;2.85;;
16288;SDS011;26089;43.538;5.250;2022-09-04T12:00:03;5.53;;;2.92;;
16288;SDS011;26089;43.538;5.250;2022-09-04T12:02:55;7.28;;;3.10;;
16288;SDS011;26089;43.538;5.250;2022-09-04T12:05:54;6.93;;;3.10;;
16288;SDS011;26089;43.538;5.250;2022-09-04T12:08:41;7.22;;;2.40;;
16288;SDS011;26089;43.538;5.250;2022-09-04T12:14:40;3.92;;;2.33;;
16288;SDS011;26089;43.538;5.250;2022-09-04T12:17:27;4.63;;;2.55;;
16288;SDS011;26089;43.538;5.250;2022-09-04T12:23:53;6.10;;;2.55;;
16288;SDS011;26089;43.538;5.250;2022-09-04T12:33:00;7.85;;;2.72;;
16288;SDS011;26089;43.538;5.250;2022-09-04T12:36:03;9.63;;;2.92;;
16288;SDS011;26089;43.538;5.250;2022-09-04T12:39:04;6.00;;;2.90;;
16288;SDS011;26089;43.538;5.250;2022-09-04T12:41:56;6.22;;;2.60;;
16288;SDS011;26089;43.538;5.250;2022-09-04T12:44:31;4.05;;;2.33;;
16288;SDS011;26089;43.538;5.250;2022-09-04T12:47:10;5.30;;;2.60;;
16288;SDS011;26089;43.538;5.250;2022-09-04T12:50:04;6.25;;;2.70;;
16288;SDS011;26089;43.538;5.250;2022-09-04T12:55:37;5.43;;;2.75;;
16288;SDS011;26089;43.538;5.250;2022-09-04T12:58:13;6.72;;;2.38;;
16288;SDS011;26089;43.538;5.250;2022-09-04T13:00:58;7.38;;;2.80;;
16288;SDS011;26089;43.538;5.250;2022-09-04T13:03:36;7.35;;;2.75;;
16288;SDS011;26089;43.538;5.250;2022-09-04T13:06:17;6.55;;;2.67;;
16288;SDS011;26089;43.538;5.250;2022-09-04T13:08:55;7.70;;;2.45;;
16288;SDS011;26089;43.538;5.250;2022-09-04T13:11:37;5.25;;;2.55;;
16288;SDS011;26089;43.538;5.250;2022-09-04T13:17:13;6.45;;;2.63;;
16288;SDS011;26089;43.538;5.250;2022-09-04T13:19:50;7.82;;;2.90;;
16288;SDS011;26089;43.538;5.250;2022-09-04T13:22:29;5.70;;;2.83;;
16288;SDS011;26089;43.538;5.250;2022-09-04T13:25:06;8.20;;;3.35;;
16288;SDS011;26089;43.538;5.250;2022-09-04T13:27:45;5.15;;;2.30;;
16288;SDS011;26089;43.538;5.250;2022-09-04T13:30:26;6.38;;;2.70;;
16288;SDS011;26089;43.538;5.250;2022-09-04T13:32:59;6.32;;;2.53;;
16288;SDS011;26089;43.538;5.250;2022-09-04T13:35:38;4.25;;;2.50;;
16288;SDS011;26089;43.538;5.250;2022-09-04T13:38:46;7.38;;;2.80;;
16288;SDS011;26089;43.538;5.250;2022-09-04T13:47:35;6.47;;;2.72;;
16288;SDS011;26089;43.538;5.250;2022-09-04T13:50:09;5.22;;;3.08;;
16288;SDS011;26089;43.538;5.250;2022-09-04T13:52:43;7.00;;;2.80;;
16288;SDS011;26089;43.538;5.250;2022-09-04T13:55:17;5.10;;;2.67;;
16288;SDS011;26089;43.538;5.250;2022-09-04T13:57:49;4.00;;;2.65;;
16288;SDS011;26089;43.538;5.250;2022-09-04T14:00:22;8.48;;;3.40;;
16288;SDS011;26089;43.538;5.250;2022-09-04T14:02:51;7.35;;;2.75;;
16288;SDS011;26089;43.538;5.250;2022-09-04T14:05:24;9.00;;;3.05;;
16288;SDS011;26089;43.538;5.250;2022-09-04T14:07:56;8.93;;;3.08;;
16288;SDS011;26089;43.538;5.250;2022-09-04T14:10:34;3.78;;;2.58;;
16288;SDS011;26089;43.538;5.250;2022-09-04T14:13:15;7.60;;;3.17;;
16288;SDS011;26089;43.538;5.250;2022-09-04T14:15:56;7.72;;;2.83;;
16288;SDS011;26089;43.538;5.250;2022-09-04T14:21:34;7.80;;;3.85;;
16288;SDS011;26089;43.538;5.250;2022-09-04T14:24:12;5.15;;;2.83;;
16288;SDS011;26089;43.538;5.250;2022-09-04T14:26:48;6.97;;;2.80;;
16288;SDS011;26089;43.538;5.250;2022-09-04T14:29:22;7.50;;;2.83;;
16288;SDS011;26089;43.538;5.250;2022-09-04T14:32:03;9.73;;;2.97;;
16288;SDS011;26089;43.538;5.250;2022-09-04T14:34:41;5.22;;;2.78;;
16288;SDS011;26089;43.538;5.250;2022-09-04T14:37:25;7.82;;;3.00;;
16288;SDS011;26089;43.538;5.250;2022-09-04T14:40:02;8.32;;;2.47;;
16288;SDS011;26089;43.538;5.250;2022-09-04T14:42:42;7.85;;;3.03;;
16288;SDS011;26089;43.538;5.250;2022-09-04T14:45:22;6.38;;;2.97;;
16288;SDS011;26089;43.538;5.250;2022-09-04T14:48:04;9.07;;;2.85;;
16288;SDS011;26089;43.538;5.250;2022-09-04T14:50:42;4.95;;;2.47;;
16288;SDS011;26089;43.538;5.250;2022-09-04T14:53:18;7.20;;;2.45;;
16288;SDS011;26089;43.538;5.250;2022-09-04T14:58:58;4.68;;;2.40;;
16288;SDS011;26089;43.538;5.250;2022-09-04T15:01:32;9.15;;;3.30;;
16288;SDS011;26089;43.538;5.250;2022-09-04T15:04:04;6.63;;;2.50;;
16288;SDS011;26089;43.538;5.250;2022-09-04T15:06:39;6.68;;;2.78;;
16288;SDS011;26089;43.538;5.250;2022-09-04T15:09:16;4.38;;;2.83;;
16288;SDS011;26089;43.538;5.250;2022-09-04T15:11:48;9.80;;;2.80;;
16288;SDS011;26089;43.538;5.250;2022-09-04T15:14:19;7.72;;;3.03;;
16288;SDS011;26089;43.538;5.250;2022-09-04T15:16:53;5.07;;;2.60;;
16288;SDS011;26089;43.538;5.250;2022-09-04T15:19:28;8.05;;;2.35;;
16288;SDS011;26089;43.538;5.250;2022-09-04T15:22:06;4.75;;;2.83;;
16288;SDS011;26089;43.538;5.250;2022-09-04T15:24:38;8.73;;;3.20;;
16288;SDS011;26089;43.538;5.250;2022-09-04T15:27:16;5.47;;;2.72;;
16288;SDS011;26089;43.538;5.250;2022-09-04T15:30:03;8.70;;;2.80;;
16288;SDS011;26089;43.538;5.250;2022-09-04T15:32:33;7.97;;;3.30;;
16288;SDS011;26089;43.538;5.250;2022-09-04T15:35:07;5.60;;;2.25;;
16288;SDS011;26089;43.538;5.250;2022-09-04T15:37:40;5.45;;;2.42;;
16288;SDS011;26089;43.538;5.250;2022-09-04T15:40:12;8.75;;;2.85;;
16288;SDS011;26089;43.538;5.250;2022-09-04T15:42:51;8.77;;;3.10;;
16288;SDS011;26089;43.538;5.250;2022-09-04T15:45:26;9.35;;;3.20;;
16288;SDS011;26089;43.538;5.250;2022-09-04T15:48:05;7.18;;;2.63;;
16288;SDS011;26089;43.538;5.250;2022-09-04T15:50:53;8.05;;;2.88;;
16288;SDS011;26089;43.538;5.250;2022-09-04T15:53:27;5.85;;;2.65;;
16288;SDS011;26089;43.538;5.250;2022-09-04T15:56:00;7.80;;;3.33;;
16288;SDS011;26089;43.538;5.250;2022-09-04T15:58:32;6.25;;;2.50;;
16288;SDS011;26089;43.538;5.250;2022-09-04T16:01:10;5.93;;;2.38;;
16288;SDS011;26089;43.538;5.250;2022-09-04T16:03:42;6.55;;;2.67;;
16288;SDS011;26089;43.538;5.250;2022-09-04T16:06:20;12.15;;;3.55;;
16288;SDS011;26089;43.538;5.250;2022-09-04T16:08:51;5.68;;;2.90;;
16288;SDS011;26089;43.538;5.250;2022-09-04T16:11:21;10.30;;;3.05;;
16288;SDS011;26089;43.538;5.250;2022-09-04T16:13:53;4.35;;;2.88;;
16288;SDS011;26089;43.538;5.250;2022-09-04T16:16:24;5.82;;;2.60;;
16288;SDS011;26089;43.538;5.250;2022-09-04T16:19:02;6.50;;;2.70;;
16288;SDS011;26089;43.538;5.250;2022-09-04T16:21:41;6.70;;;2.70;;
16288;SDS011;26089;43.538;5.250;2022-09-04T16:24:14;6.13;;;2.33;;
16288;SDS011;26089;43.538;5.250;2022-09-04T16:26:45;7.80;;;2.80;;
16288;SDS011;26089;43.538;5.250;2022-09-04T16:29:18;6.50;;;2.78;;
16288;SDS011;26089;43.538;5.250;2022-09-04T16:31:54;6.07;;;2.67;;
16288;SDS011;26089;43.538;5.250;2022-09-04T16:34:23;7.85;;;2.83;;
16288;SDS011;26089;43.538;5.250;2022-09-04T16:36:54;7.25;;;2.63;;
16288;SDS011;26089;43.538;5.250;2022-09-04T16:39:27;3.30;;;2.35;;
16288;SDS011;26089;43.538;5.250;2022-09-04T16:42:07;9.85;;;2.90;;
16288;SDS011;26089;43.538;5.250;2022-09-04T16:44:40;6.40;;;2.58;;
16288;SDS011;26089;43.538;5.250;2022-09-04T16:47:12;8.02;;;3.15;;
16288;SDS011;26089;43.538;5.250;2022-09-04T16:49:44;8.30;;;3.20;;
16288;SDS011;26089;43.538;5.250;2022-09-04T16:52:34;7.13;;;2.95;;
16288;SDS011;26089;43.538;5.250;2022-09-04T16:55:18;8.13;;;2.65;;
16288;SDS011;26089;43.538;5.250;2022-09-04T16:57:57;7.80;;;2.88;;
16288;SDS011;26089;43.538;5.250;2022-09-04T17:00:32;5.63;;;2.92;;
16288;SDS011;26089;43.538;5.250;2022-09-04T17:03:24;6.50;;;3.00;;
16288;SDS011;26089;43.538;5.250;2022-09-04T17:06:05;4.28;;;2.70;;
16288;SDS011;26089;43.538;5.250;2022-09-04T17:08:46;7.30;;;2.72;;
16288;SDS011;26089;43.538;5.250;2022-09-04T17:11:19;7.22;;;2.88;;
16288;SDS011;26089;43.538;5.250;2022-09-04T17:13:55;6.55;;;2.83;;
16288;SDS011;26089;43.538;5.250;2022-09-04T17:16:30;5.95;;;2.50;;
16288;SDS011;26089;43.538;5.250;2022-09-04T17:19:02;6.70;;;2.72;;
16288;SDS011;26089;43.538;5.250;2022-09-04T17:21:33;6.80;;;3.00;;
16288;SDS011;26089;43.538;5.250;2022-09-04T17:24:22;4.35;;;2.92;;
16288;SDS011;26089;43.538;5.250;2022-09-04T17:26:55;5.78;;;2.80;;
16288;SDS011;26089;43.538;5.250;2022-09-04T17:29:28;7.15;;;2.90;;
16288;SDS011;26089;43.538;5.250;2022-09-04T17:32:03;4.80;;;2.42;;
16288;SDS011;26089;43.538;5.250;2022-09-04T17:34:47;3.80;;;2.95;;
16288;SDS011;26089;43.538;5.250;2022-09-04T17:37:20;6.75;;;3.00;;
16288;SDS011;26089;43.538;5.250;2022-09-04T17:39:53;6.05;;;2.90;;
16288;SDS011;26089;43.538;5.250;2022-09-04T17:42:27;6.35;;;3.05;;
16288;SDS011;26089;43.538;5.250;2022-09-04T17:45:02;5.43;;;2.35;;
16288;SDS011;26089;43.538;5.250;2022-09-04T17:47:40;5.53;;;3.05;;
16288;SDS011;26089;43.538;5.250;2022-09-04T17:50:10;8.57;;;3.28;;
16288;SDS011;26089;43.538;5.250;2022-09-04T17:52:52;6.35;;;2.72;;
16288;SDS011;26089;43.538;5.250;2022-09-04T17:55:22;6.47;;;2.88;;
16288;SDS011;26089;43.538;5.250;2022-09-04T17:57:54;9.45;;;2.80;;
16288;SDS011;26089;43.538;5.250;2022-09-04T18:00:27;10.20;;;2.60;;
16288;SDS011;26089;43.538;5.250;2022-09-04T18:02:59;6.90;;;2.60;;
16288;SDS011;26089;43.538;5.250;2022-09-04T18:05:34;8.52;;;2.70;;
16288;SDS011;26089;43.538;5.250;2022-09-04T18:08:06;8.23;;;2.85;;
16288;SDS011;26089;43.538;5.250;2022-09-04T18:10:47;6.53;;;3.72;;
16288;SDS011;26089;43.538;5.250;2022-09-04T18:13:20;7.22;;;3.13;;
16288;SDS011;26089;43.538;5.250;2022-09-04T18:15:51;6.97;;;2.88;;
16288;SDS011;26089;43.538;5.250;2022-09-04T18:18:22;8.32;;;2.50;;
16288;SDS011;26089;43.538;5.250;2022-09-04T18:20:57;11.23;;;3.90;;
16288;SDS011;26089;43.538;5.250;2022-09-04T18:23:41;8.82;;;3.35;;
16288;SDS011;26089;43.538;5.250;2022-09-04T18:26:20;7.72;;;3.00;;
16288;SDS011;26089;43.538;5.250;2022-09-04T18:28:53;8.90;;;3.13;;
16288;SDS011;26089;43.538;5.250;2022-09-04T18:31:24;11.35;;;3.55;;
16288;SDS011;26089;43.538;5.250;2022-09-04T18:34:00;7.13;;;3.90;;
16288;SDS011;26089;43.538;5.250;2022-09-04T18:36:34;7.20;;;3.38;;
16288;SDS011;26089;43.538;5.250;2022-09-04T18:39:07;7.65;;;3.42;;
16288;SDS011;26089;43.538;5.250;2022-09-04T18:41:53;6.03;;;3.20;;